KAL9986 UDYZ-RKSI
Flight info
| Callsign | KAL9986 |
|---|---|
| Flight time | N/A |
| Altitude | 35000 |
| Route | SEVAN T916 SUBUT T923 ERLEV L850 BAKUV N701 LARGI B701 KRS B738 NEBIT B476 TIMGA A480 OTBOR/K0883F350 N147 OFFES/K0885F370 N147 GENDI Z621 ARBOL M610 RULAD/K0876S1130 A343 POSOT B215 FKG W188 GOVSA W66 ESPED/K0874S1190 W66 DKO W69 HUR B339 LADIX W34 VAPGU W100 ORAVA W201 UNSEK A326 DONVO G597 AGAVO/N0475F390 Y644 REBIT REBIT1Y |
| Aircraft | B77W/H-SDE1E2E3FGHIJ2J3J4J5M1RWXY/LB1D1 |
Departure
| Time | 2026-05-08 03:14 |
|---|---|
| Airport | Zvartnots International Airport (UDYZ) |
Arrival
| Time | N/A |
|---|---|
| Airport | Incheon International Airport (RKSI) |
| Time | Latitude | Longitude | Altitude | Speed | Heading |
|---|---|---|---|---|---|
| 2026-05-08 03:01 | 40.15066 | 44.39867 | 2846 ft | 0 kts | 360° |
| 2026-05-08 03:06 | 40.15056 | 44.39868 | 2844 ft | 2 kts | 359° |
| 2026-05-08 03:07 | 40.15042 | 44.39868 | 2841 ft | 2 kts | 359° |
| 2026-05-08 03:07 | 40.15029 | 44.39868 | 2841 ft | 2 kts | 358° |
| 2026-05-08 03:07 | 40.15018 | 44.39867 | 2841 ft | 1 kts | 357° |
| 2026-05-08 03:07 | 40.15011 | 44.39861 | 2842 ft | 1 kts | 357° |
| 2026-05-08 03:08 | 40.14996 | 44.39866 | 2836 ft | 3 kts | 321° |
| 2026-05-08 03:08 | 40.14984 | 44.39883 | 2832 ft | 0 kts | 272° |
| 2026-05-08 03:08 | 40.14983 | 44.39868 | 2834 ft | 7 kts | 265° |
| 2026-05-08 03:09 | 40.14979 | 44.39793 | 2852 ft | 8 kts | 269° |
| 2026-05-08 03:09 | 40.14978 | 44.39716 | 2843 ft | 8 kts | 269° |
| 2026-05-08 03:09 | 40.14977 | 44.39625 | 2841 ft | 14 kts | 269° |
| 2026-05-08 03:09 | 40.14976 | 44.39444 | 2841 ft | 22 kts | 269° |
| 2026-05-08 03:10 | 40.14974 | 44.39244 | 2841 ft | 22 kts | 269° |
| 2026-05-08 03:10 | 40.14972 | 44.39043 | 2841 ft | 22 kts | 269° |
| 2026-05-08 03:10 | 40.14971 | 44.38842 | 2841 ft | 22 kts | 270° |
| 2026-05-08 03:10 | 40.14971 | 44.38641 | 2842 ft | 22 kts | 270° |
| 2026-05-08 03:11 | 40.14972 | 44.38447 | 2842 ft | 14 kts | 270° |
| 2026-05-08 03:11 | 40.14939 | 44.38351 | 2842 ft | 12 kts | 219° |
| 2026-05-08 03:11 | 40.14866 | 44.38292 | 2843 ft | 12 kts | 209° |
| 2026-05-08 03:11 | 40.14792 | 44.38239 | 2844 ft | 12 kts | 210° |
| 2026-05-08 03:12 | 40.14731 | 44.38156 | 2845 ft | 15 kts | 241° |
| 2026-05-08 03:12 | 40.14717 | 44.38012 | 2842 ft | 16 kts | 273° |
| 2026-05-08 03:12 | 40.14717 | 44.37864 | 2841 ft | 16 kts | 270° |
| 2026-05-08 03:12 | 40.14717 | 44.37716 | 2840 ft | 16 kts | 270° |
| 2026-05-08 03:13 | 40.14716 | 44.37568 | 2840 ft | 16 kts | 269° |
| 2026-05-08 03:13 | 40.14742 | 44.37463 | 2842 ft | 10 kts | 295° |
| 2026-05-08 03:13 | 40.14752 | 44.37407 | 2840 ft | 6 kts | 255° |
| 2026-05-08 03:13 | 40.14721 | 44.37408 | 2839 ft | 6 kts | 131° |
| 2026-05-08 03:14 | 40.14717 | 44.37605 | 2840 ft | 53 kts | 90° |
| 2026-05-08 03:14 | 40.14721 | 44.38478 | 2847 ft | 136 kts | 89° |
| 2026-05-08 03:14 | 40.14729 | 44.40029 | 2953 ft | 191 kts | 89° |
| 2026-05-08 03:14 | 40.14731 | 44.41752 | 3894 ft | 190 kts | 89° |
| 2026-05-08 03:15 | 40.14737 | 44.43506 | 4712 ft | 199 kts | 89° |
| 2026-05-08 03:15 | 40.14504 | 44.45372 | 4867 ft | 221 kts | 120° |
| 2026-05-08 03:15 | 40.13346 | 44.46735 | 5062 ft | 243 kts | 160° |
| 2026-05-08 03:15 | 40.11614 | 44.46929 | 5396 ft | 261 kts | 194° |
| 2026-05-08 03:16 | 40.09998 | 44.45839 | 6090 ft | 267 kts | 225° |
| 2026-05-08 03:16 | 40.09047 | 44.43773 | 6838 ft | 271 kts | 258° |
| 2026-05-08 03:16 | 40.09154 | 44.41342 | 7628 ft | 273 kts | 292° |
| 2026-05-08 03:16 | 40.10296 | 44.39387 | 8423 ft | 276 kts | 325° |
| 2026-05-08 03:17 | 40.12106 | 44.38558 | 9171 ft | 283 kts | 358° |
| 2026-05-08 03:17 | 40.14017 | 44.39151 | 9915 ft | 289 kts | 31° |
| 2026-05-08 03:17 | 40.15466 | 44.40984 | 10573 ft | 295 kts | 54° |
| 2026-05-08 03:17 | 40.16662 | 44.43277 | 10829 ft | 318 kts | 55° |
| 2026-05-08 03:18 | 40.18004 | 44.45729 | 11030 ft | 344 kts | 52° |
| 2026-05-08 03:18 | 40.19518 | 44.48256 | 11265 ft | 369 kts | 50° |
| 2026-05-08 03:18 | 40.21207 | 44.50861 | 11918 ft | 380 kts | 48° |
| 2026-05-08 03:18 | 40.22989 | 44.53474 | 12731 ft | 388 kts | 47° |
| 2026-05-08 03:19 | 40.24835 | 44.56101 | 13663 ft | 393 kts | 46° |
| 2026-05-08 03:19 | 40.26718 | 44.58746 | 14549 ft | 398 kts | 46° |
| 2026-05-08 03:19 | 40.28622 | 44.61409 | 15394 ft | 403 kts | 46° |
| 2026-05-08 03:19 | 40.30524 | 44.64073 | 16229 ft | 407 kts | 46° |
| 2026-05-08 03:20 | 40.32496 | 44.66840 | 17081 ft | 412 kts | 46° |
| 2026-05-08 03:20 | 40.34440 | 44.69572 | 17872 ft | 418 kts | 46° |
| 2026-05-08 03:20 | 40.36452 | 44.72346 | 18661 ft | 423 kts | 45° |
| 2026-05-08 03:20 | 40.38507 | 44.75142 | 19379 ft | 427 kts | 45° |
| 2026-05-08 03:21 | 40.40580 | 44.77954 | 20093 ft | 431 kts | 45° |
| 2026-05-08 03:21 | 40.42674 | 44.80804 | 20811 ft | 436 kts | 46° |
| 2026-05-08 03:21 | 40.44792 | 44.83694 | 21475 ft | 441 kts | 46° |
| 2026-05-08 03:21 | 40.46927 | 44.86615 | 22133 ft | 446 kts | 46° |
| 2026-05-08 03:22 | 40.49082 | 44.89570 | 22800 ft | 450 kts | 46° |
| 2026-05-08 03:22 | 40.51262 | 44.92560 | 23448 ft | 455 kts | 46° |
| 2026-05-08 03:22 | 40.53440 | 44.95609 | 24010 ft | 459 kts | 50° |
| 2026-05-08 03:22 | 40.55277 | 44.99064 | 24460 ft | 463 kts | 60° |
| 2026-05-08 03:23 | 40.56840 | 45.02780 | 24938 ft | 467 kts | 63° |
| 2026-05-08 03:23 | 40.58368 | 45.06576 | 25437 ft | 471 kts | 63° |
| 2026-05-08 03:23 | 40.59898 | 45.10348 | 25940 ft | 475 kts | 63° |
| 2026-05-08 03:23 | 40.61490 | 45.14184 | 26405 ft | 480 kts | 62° |
| 2026-05-08 03:24 | 40.63123 | 45.18036 | 26869 ft | 484 kts | 62° |
| 2026-05-08 03:24 | 40.64789 | 45.21919 | 27317 ft | 489 kts | 62° |
| 2026-05-08 03:24 | 40.66473 | 45.25828 | 27762 ft | 493 kts | 62° |
| 2026-05-08 03:24 | 40.68172 | 45.29775 | 28206 ft | 497 kts | 62° |
| 2026-05-08 03:25 | 40.69881 | 45.33755 | 28615 ft | 501 kts | 62° |
| 2026-05-08 03:25 | 40.71602 | 45.37775 | 28992 ft | 505 kts | 62° |
| 2026-05-08 03:25 | 40.73333 | 45.41829 | 29370 ft | 509 kts | 62° |
| 2026-05-08 03:25 | 40.74981 | 45.45910 | 29711 ft | 511 kts | 67° |
| 2026-05-08 03:26 | 40.76305 | 45.50276 | 30157 ft | 510 kts | 73° |
| 2026-05-08 03:26 | 40.77306 | 45.54755 | 30585 ft | 509 kts | 78° |
| 2026-05-08 03:26 | 40.77968 | 45.59332 | 30968 ft | 507 kts | 84° |
| 2026-05-08 03:26 | 40.78436 | 45.63947 | 31257 ft | 509 kts | 85° |
| 2026-05-08 03:27 | 40.78877 | 45.68597 | 31602 ft | 510 kts | 85° |
| 2026-05-08 03:27 | 40.79315 | 45.73249 | 31978 ft | 511 kts | 85° |
| 2026-05-08 03:27 | 40.79764 | 45.77920 | 32329 ft | 512 kts | 85° |
| 2026-05-08 03:27 | 40.80224 | 45.82586 | 32669 ft | 513 kts | 85° |
| 2026-05-08 03:28 | 40.80691 | 45.87258 | 33000 ft | 514 kts | 85° |
| 2026-05-08 03:28 | 40.81158 | 45.91880 | 33325 ft | 515 kts | 85° |
| 2026-05-08 03:28 | 40.81632 | 45.96574 | 33657 ft | 516 kts | 85° |
| 2026-05-08 03:28 | 40.82105 | 46.01270 | 34005 ft | 516 kts | 85° |
| 2026-05-08 03:29 | 40.82575 | 46.05970 | 34302 ft | 517 kts | 85° |
| 2026-05-08 03:29 | 40.83043 | 46.10681 | 34573 ft | 517 kts | 85° |
| 2026-05-08 03:29 | 40.83509 | 46.15387 | 34882 ft | 517 kts | 85° |
| 2026-05-08 03:29 | 40.83973 | 46.20099 | 35095 ft | 519 kts | 85° |
| 2026-05-08 03:30 | 40.84901 | 46.29600 | 35151 ft | 522 kts | 85° |
| 2026-05-08 03:31 | 40.86716 | 46.48374 | 35157 ft | 514 kts | 86° |
| 2026-05-08 03:32 | 40.88052 | 46.62438 | 35165 ft | 515 kts | 86° |
| 2026-05-08 03:32 | 40.88936 | 46.71843 | 35172 ft | 516 kts | 86° |
| 2026-05-08 03:33 | 40.89704 | 46.81281 | 35168 ft | 515 kts | 91° |
| 2026-05-08 03:33 | 40.89405 | 46.90685 | 35171 ft | 511 kts | 100° |
| 2026-05-08 03:34 | 40.88652 | 47.00050 | 35168 ft | 513 kts | 101° |
| 2026-05-08 03:34 | 40.87923 | 47.09453 | 35162 ft | 516 kts | 100° |
| 2026-05-08 03:35 | 40.87223 | 47.18911 | 35158 ft | 517 kts | 100° |
| 2026-05-08 03:35 | 40.86524 | 47.28380 | 35157 ft | 518 kts | 101° |
| 2026-05-08 03:36 | 40.85811 | 47.37855 | 35173 ft | 519 kts | 101° |
| 2026-05-08 03:36 | 40.85089 | 47.47336 | 35176 ft | 519 kts | 101° |
| 2026-05-08 03:37 | 40.84404 | 47.56779 | 35177 ft | 520 kts | 100° |
| 2026-05-08 03:37 | 40.83830 | 47.66306 | 35176 ft | 520 kts | 99° |
| 2026-05-08 03:38 | 40.83265 | 47.75831 | 35181 ft | 520 kts | 99° |
| 2026-05-08 03:38 | 40.82676 | 47.85348 | 35182 ft | 520 kts | 100° |
| 2026-05-08 03:39 | 40.82066 | 47.94867 | 35172 ft | 520 kts | 100° |
| 2026-05-08 03:39 | 40.81447 | 48.04379 | 35170 ft | 520 kts | 100° |
| 2026-05-08 03:40 | 40.80928 | 48.12278 | 35173 ft | 520 kts | 100° |
| 2026-05-08 03:40 | 40.80298 | 48.21778 | 35163 ft | 520 kts | 101° |
| 2026-05-08 03:41 | 40.79658 | 48.31289 | 35156 ft | 520 kts | 101° |
| 2026-05-08 03:41 | 40.79012 | 48.40794 | 35161 ft | 519 kts | 101° |
| 2026-05-08 03:42 | 40.78254 | 48.51823 | 35155 ft | 519 kts | 101° |
| 2026-05-08 03:42 | 40.77700 | 48.59759 | 35161 ft | 518 kts | 101° |
| 2026-05-08 03:43 | 40.77030 | 48.69238 | 35147 ft | 519 kts | 101° |
| 2026-05-08 03:43 | 40.76358 | 48.78666 | 35149 ft | 519 kts | 102° |
| 2026-05-08 03:44 | 40.75673 | 48.88149 | 35158 ft | 520 kts | 102° |
| 2026-05-08 03:44 | 40.74978 | 48.97654 | 35154 ft | 520 kts | 102° |
| 2026-05-08 03:45 | 40.74277 | 49.07166 | 35142 ft | 521 kts | 102° |
| 2026-05-08 03:45 | 40.73569 | 49.16680 | 35143 ft | 522 kts | 102° |
| 2026-05-08 03:46 | 40.72330 | 49.25968 | 35132 ft | 512 kts | 112° |
| 2026-05-08 03:46 | 40.69962 | 49.34710 | 35131 ft | 505 kts | 120° |
| 2026-05-08 03:47 | 40.67316 | 49.43299 | 35116 ft | 507 kts | 119° |
| 2026-05-08 03:47 | 40.64720 | 49.51942 | 35111 ft | 507 kts | 119° |
| 2026-05-08 03:48 | 40.62103 | 49.60564 | 35111 ft | 506 kts | 121° |
| 2026-05-08 03:48 | 40.59294 | 49.69044 | 35112 ft | 505 kts | 121° |
| 2026-05-08 03:49 | 40.56457 | 49.77503 | 35122 ft | 506 kts | 121° |
| 2026-05-08 03:49 | 40.53643 | 49.85990 | 35120 ft | 506 kts | 121° |
| 2026-05-08 03:50 | 40.50852 | 49.94423 | 35135 ft | 506 kts | 121° |
| 2026-05-08 03:50 | 40.48094 | 50.02948 | 35130 ft | 511 kts | 117° |
| 2026-05-08 03:51 | 40.46237 | 50.12057 | 35128 ft | 522 kts | 107° |
| 2026-05-08 03:51 | 40.45029 | 50.21470 | 35125 ft | 523 kts | 105° |
| 2026-05-08 03:52 | 40.43824 | 50.30889 | 35120 ft | 523 kts | 106° |
| 2026-05-08 03:52 | 40.42579 | 50.40221 | 35125 ft | 522 kts | 107° |
| 2026-05-08 03:53 | 40.41295 | 50.49605 | 35124 ft | 522 kts | 107° |
| 2026-05-08 03:53 | 40.40004 | 50.58976 | 35129 ft | 522 kts | 107° |
| 2026-05-08 03:54 | 40.38707 | 50.68353 | 35131 ft | 522 kts | 107° |
| 2026-05-08 03:54 | 40.37403 | 50.77730 | 35131 ft | 522 kts | 107° |
| 2026-05-08 03:55 | 40.36102 | 50.87027 | 35135 ft | 522 kts | 107° |
| 2026-05-08 03:55 | 40.34784 | 50.96394 | 35146 ft | 522 kts | 107° |
| 2026-05-08 03:56 | 40.33458 | 51.05755 | 35147 ft | 522 kts | 107° |
| 2026-05-08 03:56 | 40.32124 | 51.15120 | 35151 ft | 522 kts | 107° |
| 2026-05-08 03:57 | 40.30780 | 51.24494 | 35146 ft | 522 kts | 107° |
| 2026-05-08 03:57 | 40.29439 | 51.33795 | 35150 ft | 523 kts | 107° |
| 2026-05-08 03:58 | 40.28081 | 51.43164 | 35152 ft | 523 kts | 107° |
| 2026-05-08 03:58 | 40.26714 | 51.52542 | 35154 ft | 523 kts | 107° |
| 2026-05-08 03:59 | 40.25348 | 51.61850 | 35150 ft | 523 kts | 107° |
| 2026-05-08 03:59 | 40.23970 | 51.71205 | 35152 ft | 523 kts | 107° |
| 2026-05-08 04:00 | 40.22584 | 51.80557 | 35153 ft | 523 kts | 107° |
| 2026-05-08 04:00 | 40.21191 | 51.89908 | 35155 ft | 523 kts | 107° |
| 2026-05-08 04:01 | 40.19789 | 51.99257 | 35166 ft | 524 kts | 107° |
| 2026-05-08 04:01 | 40.18390 | 52.08538 | 35146 ft | 524 kts | 107° |
| 2026-05-08 04:02 | 40.16970 | 52.17901 | 35148 ft | 525 kts | 107° |
| 2026-05-08 04:02 | 40.15542 | 52.27265 | 35149 ft | 525 kts | 107° |
| 2026-05-08 04:03 | 40.14106 | 52.36632 | 35149 ft | 526 kts | 108° |
| 2026-05-08 04:03 | 40.11941 | 52.50644 | 35140 ft | 527 kts | 108° |
| 2026-05-08 04:04 | 40.10482 | 52.60027 | 35148 ft | 527 kts | 108° |
| 2026-05-08 04:04 | 40.09013 | 52.69423 | 35146 ft | 528 kts | 108° |
| 2026-05-08 04:05 | 40.07533 | 52.78832 | 35145 ft | 529 kts | 108° |
| 2026-05-08 04:05 | 40.06043 | 52.88263 | 35145 ft | 530 kts | 108° |
| 2026-05-08 04:06 | 40.04876 | 52.97798 | 35139 ft | 540 kts | 96° |
| 2026-05-08 04:06 | 40.05778 | 53.07630 | 35144 ft | 554 kts | 77° |
| 2026-05-08 04:07 | 40.08477 | 53.17078 | 35146 ft | 557 kts | 70° |
| 2026-05-08 04:07 | 40.11373 | 53.26415 | 35143 ft | 559 kts | 70° |
| 2026-05-08 04:08 | 40.14228 | 53.35894 | 35133 ft | 561 kts | 71° |
| 2026-05-08 04:08 | 40.17018 | 53.45438 | 35155 ft | 562 kts | 71° |
| 2026-05-08 04:09 | 40.19783 | 53.55007 | 35154 ft | 563 kts | 72° |
| 2026-05-08 04:09 | 40.22552 | 53.64607 | 35148 ft | 564 kts | 71° |
| 2026-05-08 04:10 | 40.25151 | 53.73624 | 35153 ft | 564 kts | 71° |
| 2026-05-08 04:10 | 40.27911 | 53.83228 | 35139 ft | 564 kts | 72° |
| 2026-05-08 04:11 | 40.30662 | 53.92833 | 35146 ft | 563 kts | 72° |
| 2026-05-08 04:11 | 40.33385 | 54.02381 | 35144 ft | 562 kts | 72° |
| 2026-05-08 04:12 | 40.36113 | 54.11986 | 35148 ft | 562 kts | 72° |
| 2026-05-08 04:12 | 40.38838 | 54.21617 | 35156 ft | 563 kts | 72° |
| 2026-05-08 04:13 | 40.41557 | 54.31258 | 35156 ft | 564 kts | 72° |
| 2026-05-08 04:13 | 40.44269 | 54.40913 | 35154 ft | 565 kts | 72° |
| 2026-05-08 04:14 | 40.46980 | 54.50601 | 35148 ft | 565 kts | 72° |
| 2026-05-08 04:14 | 40.49690 | 54.60319 | 35147 ft | 566 kts | 72° |
| 2026-05-08 04:15 | 40.52388 | 54.70035 | 35144 ft | 566 kts | 72° |
| 2026-05-08 04:15 | 40.55080 | 54.79765 | 35146 ft | 566 kts | 72° |
| 2026-05-08 04:16 | 40.57764 | 54.89501 | 35144 ft | 566 kts | 72° |
| 2026-05-08 04:16 | 40.60422 | 54.99184 | 35147 ft | 566 kts | 72° |
| 2026-05-08 04:17 | 40.63092 | 55.08945 | 35147 ft | 567 kts | 72° |
| 2026-05-08 04:17 | 40.65755 | 55.18723 | 35144 ft | 567 kts | 72° |
| 2026-05-08 04:18 | 40.68411 | 55.28509 | 35147 ft | 568 kts | 72° |
| 2026-05-08 04:18 | 40.71064 | 55.38321 | 35145 ft | 568 kts | 72° |
| 2026-05-08 04:19 | 40.73705 | 55.48128 | 35148 ft | 568 kts | 72° |
| 2026-05-08 04:19 | 40.76341 | 55.57957 | 35140 ft | 568 kts | 72° |
| 2026-05-08 04:20 | 40.78966 | 55.67782 | 35139 ft | 568 kts | 72° |
| 2026-05-08 04:20 | 40.81583 | 55.77616 | 35135 ft | 568 kts | 72° |
| 2026-05-08 04:21 | 40.84190 | 55.87454 | 35141 ft | 567 kts | 72° |
| 2026-05-08 04:21 | 40.86788 | 55.97299 | 35146 ft | 567 kts | 72° |
| 2026-05-08 04:22 | 40.89375 | 56.07141 | 35133 ft | 567 kts | 72° |
| 2026-05-08 04:22 | 40.91954 | 56.16989 | 35132 ft | 567 kts | 72° |
| 2026-05-08 04:23 | 40.94521 | 56.26835 | 35129 ft | 566 kts | 72° |
| 2026-05-08 04:23 | 40.97064 | 56.36627 | 35130 ft | 566 kts | 72° |
| 2026-05-08 04:24 | 40.99613 | 56.46481 | 35127 ft | 566 kts | 73° |
| 2026-05-08 04:24 | 41.01545 | 56.56531 | 35129 ft | 561 kts | 84° |
| 2026-05-08 04:25 | 41.02713 | 56.66737 | 35133 ft | 560 kts | 85° |
| 2026-05-08 04:25 | 41.03845 | 56.76943 | 35123 ft | 561 kts | 84° |
| 2026-05-08 04:26 | 41.05027 | 56.87164 | 35121 ft | 561 kts | 84° |
| 2026-05-08 04:26 | 41.06227 | 56.97372 | 35121 ft | 561 kts | 84° |
| 2026-05-08 04:27 | 41.07417 | 57.07570 | 35121 ft | 560 kts | 84° |
| 2026-05-08 04:27 | 41.08594 | 57.17775 | 35121 ft | 560 kts | 84° |
| 2026-05-08 04:28 | 41.09563 | 57.26260 | 35115 ft | 560 kts | 84° |
| 2026-05-08 04:28 | 41.10908 | 57.38122 | 35112 ft | 559 kts | 84° |
| 2026-05-08 04:29 | 41.12053 | 57.48310 | 35113 ft | 558 kts | 84° |
| 2026-05-08 04:29 | 41.12972 | 57.56546 | 35114 ft | 557 kts | 84° |
| 2026-05-08 04:30 | 41.14097 | 57.66708 | 35105 ft | 556 kts | 84° |
| 2026-05-08 04:30 | 41.15211 | 57.76856 | 35104 ft | 555 kts | 84° |
| 2026-05-08 04:31 | 41.16308 | 57.86927 | 35102 ft | 554 kts | 84° |
| 2026-05-08 04:31 | 41.17400 | 57.97047 | 35101 ft | 553 kts | 84° |
| 2026-05-08 04:32 | 41.18483 | 58.07146 | 35100 ft | 552 kts | 84° |
| 2026-05-08 04:32 | 41.19553 | 58.17238 | 35094 ft | 551 kts | 84° |
| 2026-05-08 04:33 | 41.20608 | 58.27302 | 35096 ft | 550 kts | 84° |
| 2026-05-08 04:33 | 41.21653 | 58.37365 | 35095 ft | 558 kts | 85° |
| 2026-05-08 04:34 | 41.22717 | 58.47727 | 35104 ft | 573 kts | 85° |
| 2026-05-08 04:34 | 41.23798 | 58.58314 | 35093 ft | 581 kts | 85° |
| 2026-05-08 04:35 | 41.24873 | 58.68892 | 35082 ft | 580 kts | 85° |
| 2026-05-08 04:35 | 41.25941 | 58.79521 | 35079 ft | 579 kts | 85° |
| 2026-05-08 04:36 | 41.26994 | 58.90121 | 35075 ft | 577 kts | 85° |
| 2026-05-08 04:36 | 41.28033 | 59.00679 | 35085 ft | 575 kts | 85° |
| 2026-05-08 04:37 | 41.29058 | 59.11207 | 35075 ft | 573 kts | 85° |
| 2026-05-08 04:37 | 41.30072 | 59.21727 | 35079 ft | 572 kts | 85° |
| 2026-05-08 04:38 | 41.31075 | 59.32220 | 35079 ft | 571 kts | 85° |
| 2026-05-08 04:38 | 41.32061 | 59.42638 | 35078 ft | 571 kts | 85° |
| 2026-05-08 04:39 | 41.33042 | 59.53116 | 35072 ft | 571 kts | 85° |
| 2026-05-08 04:39 | 41.34045 | 59.63601 | 35070 ft | 571 kts | 82° |
| 2026-05-08 04:40 | 41.35901 | 59.73871 | 35071 ft | 571 kts | 71° |
| 2026-05-08 04:40 | 41.38452 | 59.83903 | 35074 ft | 571 kts | 70° |
| 2026-05-08 04:41 | 41.40959 | 59.93881 | 35071 ft | 571 kts | 71° |
| 2026-05-08 04:41 | 41.43407 | 60.03958 | 35070 ft | 571 kts | 71° |
| 2026-05-08 04:42 | 41.45834 | 60.14033 | 35068 ft | 571 kts | 71° |
| 2026-05-08 04:42 | 41.48257 | 60.24120 | 35078 ft | 570 kts | 72° |
| 2026-05-08 04:43 | 41.50609 | 60.34140 | 35064 ft | 569 kts | 72° |
| 2026-05-08 04:43 | 41.52957 | 60.44222 | 35071 ft | 568 kts | 72° |
| 2026-05-08 04:44 | 41.55299 | 60.54280 | 35080 ft | 566 kts | 72° |
| 2026-05-08 04:44 | 41.57631 | 60.64331 | 35078 ft | 565 kts | 72° |
| 2026-05-08 04:45 | 41.60093 | 60.74293 | 35075 ft | 564 kts | 69° |
| 2026-05-08 04:45 | 41.62735 | 60.84084 | 35075 ft | 563 kts | 69° |
| 2026-05-08 04:46 | 41.65375 | 60.93934 | 35077 ft | 562 kts | 69° |
| 2026-05-08 04:46 | 41.67957 | 61.03793 | 35071 ft | 561 kts | 69° |
| 2026-05-08 04:47 | 41.70515 | 61.13673 | 35065 ft | 560 kts | 69° |
| 2026-05-08 04:47 | 41.73056 | 61.23518 | 35069 ft | 560 kts | 70° |
| 2026-05-08 04:48 | 41.75582 | 61.33324 | 35069 ft | 559 kts | 70° |
| 2026-05-08 04:48 | 41.78108 | 61.43172 | 35065 ft | 558 kts | 70° |
| 2026-05-08 04:49 | 41.80634 | 61.53056 | 35497 ft | 559 kts | 70° |
| 2026-05-08 04:49 | 41.81885 | 61.57971 | 36026 ft | 553 kts | 70° |
| 2026-05-08 04:49 | 41.83102 | 61.62765 | 36541 ft | 548 kts | 70° |
| 2026-05-08 04:50 | 41.84326 | 61.67590 | 37007 ft | 544 kts | 70° |
| 2026-05-08 04:50 | 41.85545 | 61.72400 | 37075 ft | 547 kts | 70° |
| 2026-05-08 04:50 | 41.87979 | 61.82074 | 37054 ft | 545 kts | 70° |
| 2026-05-08 04:51 | 41.90378 | 61.91698 | 37049 ft | 540 kts | 70° |
| 2026-05-08 04:51 | 41.92737 | 62.01189 | 37055 ft | 538 kts | 70° |
| 2026-05-08 04:52 | 41.95095 | 62.10699 | 37057 ft | 536 kts | 70° |
| 2026-05-08 04:52 | 41.97444 | 62.20207 | 37056 ft | 536 kts | 71° |
| 2026-05-08 04:53 | 41.99788 | 62.29727 | 37061 ft | 537 kts | 71° |
| 2026-05-08 04:53 | 42.02127 | 62.39269 | 37044 ft | 537 kts | 71° |
| 2026-05-08 04:54 | 42.04462 | 62.48839 | 37055 ft | 538 kts | 71° |
| 2026-05-08 04:54 | 42.06777 | 62.58359 | 37045 ft | 538 kts | 71° |
| 2026-05-08 04:55 | 42.09097 | 62.67936 | 37042 ft | 538 kts | 71° |
| 2026-05-08 04:55 | 42.11419 | 62.77528 | 37037 ft | 538 kts | 71° |
| 2026-05-08 04:56 | 42.13724 | 62.87119 | 37033 ft | 537 kts | 71° |
| 2026-05-08 04:56 | 42.16012 | 62.96689 | 37034 ft | 536 kts | 71° |
| 2026-05-08 04:57 | 42.18297 | 63.06258 | 37034 ft | 535 kts | 71° |
| 2026-05-08 04:57 | 42.20581 | 63.15802 | 37029 ft | 535 kts | 71° |
| 2026-05-08 04:58 | 42.22856 | 63.25344 | 37025 ft | 534 kts | 71° |
| 2026-05-08 04:58 | 42.25118 | 63.34882 | 37029 ft | 533 kts | 71° |
| 2026-05-08 04:59 | 42.27350 | 63.44339 | 37030 ft | 532 kts | 71° |
| 2026-05-08 04:59 | 42.29603 | 63.53924 | 37024 ft | 531 kts | 71° |
| 2026-05-08 05:00 | 42.31816 | 63.63376 | 37027 ft | 531 kts | 71° |
| 2026-05-08 05:00 | 42.34034 | 63.72891 | 37024 ft | 530 kts | 71° |
| 2026-05-08 05:01 | 42.36244 | 63.82416 | 37027 ft | 530 kts | 71° |
| 2026-05-08 05:01 | 42.38446 | 63.91940 | 37026 ft | 530 kts | 71° |
| 2026-05-08 05:02 | 42.40638 | 64.01468 | 37024 ft | 530 kts | 72° |
| 2026-05-08 05:02 | 42.42751 | 64.10951 | 37023 ft | 530 kts | 72° |
| 2026-05-08 05:03 | 42.44861 | 64.20518 | 37020 ft | 530 kts | 72° |
| 2026-05-08 05:03 | 42.46991 | 64.30065 | 37025 ft | 530 kts | 72° |
| 2026-05-08 05:04 | 42.49145 | 64.39614 | 37026 ft | 530 kts | 72° |
| 2026-05-08 05:04 | 42.51289 | 64.49166 | 37025 ft | 529 kts | 72° |
| 2026-05-08 05:05 | 42.53419 | 64.58720 | 37015 ft | 529 kts | 72° |
| 2026-05-08 05:05 | 42.55534 | 64.68264 | 37014 ft | 528 kts | 72° |
| 2026-05-08 05:06 | 42.57642 | 64.77814 | 37007 ft | 527 kts | 72° |
| 2026-05-08 05:06 | 42.59724 | 64.87289 | 36998 ft | 527 kts | 72° |
| 2026-05-08 05:07 | 42.61810 | 64.96823 | 37004 ft | 526 kts | 72° |
| 2026-05-08 05:07 | 42.63886 | 65.06352 | 36991 ft | 525 kts | 72° |
| 2026-05-08 05:08 | 42.65948 | 65.15864 | 36988 ft | 525 kts | 72° |
| 2026-05-08 05:08 | 42.68005 | 65.25391 | 36987 ft | 524 kts | 72° |
| 2026-05-08 05:09 | 42.70038 | 65.34851 | 36980 ft | 524 kts | 72° |
| 2026-05-08 05:09 | 42.72074 | 65.44371 | 36980 ft | 524 kts | 72° |
| 2026-05-08 05:10 | 42.75111 | 65.58648 | 36975 ft | 523 kts | 72° |
| 2026-05-08 05:11 | 42.77128 | 65.68184 | 36971 ft | 523 kts | 73° |
| 2026-05-08 05:11 | 42.79133 | 65.77696 | 36967 ft | 522 kts | 73° |
| 2026-05-08 05:12 | 42.81130 | 65.87130 | 36962 ft | 522 kts | 72° |
| 2026-05-08 05:12 | 42.83143 | 65.96644 | 36962 ft | 522 kts | 73° |
| 2026-05-08 05:13 | 42.85141 | 66.06145 | 36953 ft | 521 kts | 73° |
| 2026-05-08 05:13 | 42.87110 | 66.15651 | 36955 ft | 520 kts | 73° |
| 2026-05-08 05:14 | 42.89029 | 66.25169 | 36950 ft | 520 kts | 73° |
| 2026-05-08 05:14 | 42.90925 | 66.34613 | 36945 ft | 519 kts | 73° |
| 2026-05-08 05:15 | 42.92833 | 66.44121 | 36947 ft | 519 kts | 73° |
| 2026-05-08 05:15 | 42.94733 | 66.53627 | 36939 ft | 518 kts | 73° |
| 2026-05-08 05:16 | 42.96617 | 66.63070 | 36938 ft | 518 kts | 73° |
| 2026-05-08 05:16 | 42.98542 | 66.72550 | 36935 ft | 517 kts | 73° |
| 2026-05-08 05:17 | 43.00453 | 66.82047 | 36937 ft | 517 kts | 73° |
| 2026-05-08 05:17 | 43.02016 | 66.89930 | 36942 ft | 517 kts | 73° |
| 2026-05-08 05:18 | 43.04190 | 67.00972 | 36938 ft | 517 kts | 73° |
| 2026-05-08 05:18 | 43.05742 | 67.08881 | 36938 ft | 517 kts | 73° |
| 2026-05-08 05:19 | 43.07598 | 67.18370 | 36943 ft | 516 kts | 74° |
| 2026-05-08 05:19 | 43.09447 | 67.27866 | 36940 ft | 516 kts | 74° |
| 2026-05-08 05:20 | 43.11290 | 67.37381 | 36940 ft | 516 kts | 74° |
| 2026-05-08 05:20 | 43.13110 | 67.46824 | 36943 ft | 516 kts | 74° |
| 2026-05-08 05:21 | 43.14929 | 67.56335 | 36943 ft | 516 kts | 74° |
| 2026-05-08 05:21 | 43.16738 | 67.65850 | 36943 ft | 515 kts | 74° |
| 2026-05-08 05:22 | 43.18542 | 67.75374 | 36944 ft | 515 kts | 74° |
| 2026-05-08 05:22 | 43.20329 | 67.84840 | 36944 ft | 515 kts | 74° |
| 2026-05-08 05:23 | 43.22124 | 67.94360 | 36946 ft | 515 kts | 75° |
| 2026-05-08 05:23 | 43.23902 | 68.03826 | 36949 ft | 515 kts | 75° |
| 2026-05-08 05:24 | 43.25679 | 68.13342 | 36952 ft | 514 kts | 75° |
| 2026-05-08 05:24 | 43.27448 | 68.22869 | 36953 ft | 514 kts | 75° |
| 2026-05-08 05:25 | 43.29197 | 68.32333 | 36954 ft | 513 kts | 75° |
| 2026-05-08 05:25 | 43.30708 | 68.41900 | 36958 ft | 513 kts | 80° |
| 2026-05-08 05:26 | 43.31835 | 68.51572 | 36958 ft | 512 kts | 80° |
| 2026-05-08 05:26 | 43.32976 | 68.61235 | 36963 ft | 512 kts | 82° |
| 2026-05-08 05:27 | 43.33816 | 68.70957 | 36966 ft | 512 kts | 84° |
| 2026-05-08 05:27 | 43.34562 | 68.80619 | 36972 ft | 511 kts | 83° |
| 2026-05-08 05:28 | 43.35357 | 68.90334 | 36974 ft | 511 kts | 83° |
| 2026-05-08 05:28 | 43.36170 | 69.00031 | 36974 ft | 510 kts | 83° |
| 2026-05-08 05:29 | 43.36973 | 69.09718 | 36981 ft | 510 kts | 83° |
| 2026-05-08 05:29 | 43.37768 | 69.19414 | 36983 ft | 510 kts | 83° |
| 2026-05-08 05:30 | 43.38603 | 69.29116 | 36982 ft | 510 kts | 83° |
| 2026-05-08 05:30 | 43.39440 | 69.38736 | 36982 ft | 510 kts | 83° |
| 2026-05-08 05:31 | 43.40273 | 69.48482 | 36988 ft | 510 kts | 83° |
| 2026-05-08 05:31 | 43.41083 | 69.58111 | 36993 ft | 510 kts | 83° |
| 2026-05-08 05:32 | 43.41890 | 69.67806 | 36989 ft | 510 kts | 83° |
| 2026-05-08 05:32 | 43.42691 | 69.77491 | 36995 ft | 510 kts | 83° |
| 2026-05-08 05:33 | 43.43515 | 69.87175 | 36996 ft | 509 kts | 83° |
| 2026-05-08 05:33 | 43.44342 | 69.96857 | 36997 ft | 509 kts | 83° |
| 2026-05-08 05:34 | 43.45157 | 70.06534 | 36994 ft | 509 kts | 83° |
| 2026-05-08 05:34 | 43.45960 | 70.16211 | 36992 ft | 508 kts | 83° |
| 2026-05-08 05:35 | 43.46747 | 70.25814 | 36993 ft | 508 kts | 84° |
| 2026-05-08 05:35 | 43.47531 | 70.35469 | 36990 ft | 507 kts | 84° |
| 2026-05-08 05:36 | 43.48307 | 70.45118 | 36986 ft | 507 kts | 84° |
| 2026-05-08 05:36 | 43.49074 | 70.54763 | 36990 ft | 506 kts | 84° |
| 2026-05-08 05:37 | 43.49832 | 70.64412 | 36990 ft | 506 kts | 84° |
| 2026-05-08 05:37 | 43.50582 | 70.74046 | 36990 ft | 505 kts | 84° |
| 2026-05-08 05:38 | 43.51323 | 70.83665 | 36990 ft | 505 kts | 84° |
| 2026-05-08 05:38 | 43.52050 | 70.93275 | 36995 ft | 504 kts | 84° |
| 2026-05-08 05:39 | 43.52759 | 71.02828 | 36997 ft | 504 kts | 84° |
| 2026-05-08 05:39 | 43.53464 | 71.12433 | 36997 ft | 503 kts | 84° |
| 2026-05-08 05:40 | 43.54161 | 71.22030 | 36995 ft | 503 kts | 84° |
| 2026-05-08 05:40 | 43.54851 | 71.31631 | 36998 ft | 503 kts | 84° |
| 2026-05-08 05:41 | 43.55532 | 71.41233 | 36994 ft | 502 kts | 85° |
| 2026-05-08 05:41 | 43.56200 | 71.50749 | 36990 ft | 501 kts | 85° |
| 2026-05-08 05:42 | 43.56864 | 71.60326 | 36999 ft | 501 kts | 85° |
| 2026-05-08 05:42 | 43.57518 | 71.69893 | 36999 ft | 500 kts | 85° |
| 2026-05-08 05:43 | 43.58161 | 71.79397 | 36998 ft | 500 kts | 85° |
| 2026-05-08 05:43 | 43.58798 | 71.88945 | 37000 ft | 499 kts | 85° |
| 2026-05-08 05:44 | 43.59428 | 71.98501 | 37003 ft | 498 kts | 85° |
| 2026-05-08 05:44 | 43.60044 | 72.07967 | 37000 ft | 498 kts | 85° |
| 2026-05-08 05:45 | 43.60655 | 72.17476 | 37002 ft | 497 kts | 85° |
| 2026-05-08 05:45 | 43.61258 | 72.27008 | 37004 ft | 497 kts | 85° |
| 2026-05-08 05:46 | 43.61853 | 72.36514 | 37001 ft | 497 kts | 85° |
| 2026-05-08 05:46 | 43.62440 | 72.46026 | 37000 ft | 497 kts | 85° |
| 2026-05-08 05:47 | 43.63020 | 72.55554 | 36997 ft | 497 kts | 85° |
| 2026-05-08 05:47 | 43.63591 | 72.65065 | 37006 ft | 497 kts | 85° |
| 2026-05-08 05:48 | 43.64150 | 72.74520 | 37006 ft | 497 kts | 85° |
| 2026-05-08 05:48 | 43.64705 | 72.84027 | 36998 ft | 497 kts | 85° |
| 2026-05-08 05:49 | 43.65253 | 72.93552 | 36997 ft | 496 kts | 85° |
| 2026-05-08 05:49 | 43.65792 | 73.03075 | 37001 ft | 496 kts | 85° |
| 2026-05-08 05:50 | 43.66319 | 73.12520 | 36998 ft | 496 kts | 85° |
| 2026-05-08 05:50 | 43.66843 | 73.22033 | 37000 ft | 496 kts | 85° |
| 2026-05-08 05:51 | 43.67358 | 73.31555 | 36999 ft | 496 kts | 86° |
| 2026-05-08 05:51 | 43.67862 | 73.41002 | 36997 ft | 496 kts | 86° |
| 2026-05-08 05:52 | 43.68361 | 73.50514 | 36993 ft | 496 kts | 86° |
| 2026-05-08 05:52 | 43.68852 | 73.60024 | 36995 ft | 496 kts | 86° |
| 2026-05-08 05:53 | 43.69337 | 73.69533 | 37006 ft | 496 kts | 86° |
| 2026-05-08 05:53 | 43.69572 | 73.78999 | 37000 ft | 496 kts | 92° |
| 2026-05-08 05:54 | 43.69270 | 73.88522 | 37009 ft | 496 kts | 93° |
| 2026-05-08 05:54 | 43.68951 | 73.98061 | 36998 ft | 496 kts | 93° |